WMKK/KUL METAR and TAF weather

Enter ICAO airport designator
Station Type Date Time Source
WMKK METAR 2020/08/15 16:00 UTC NOAA

WMKK 151600Z 00000KT 9000 FEW030 27/25 Q1010 NOSIG


Station Type Date Time Source
WMKK Decoded METAR 2020/08/15 16:00 UTC NOAA

Sepang/KL International Airport, Malaysia (WMKK) 02-44N 101-42E 22M
Aug 15, 2020 - 12:00 PM EDT / 2020.08.15 1600 UTC
Wind: Calm:0
Visibility: 5 mile(s):0
Sky conditions: mostly clear
Temperature: 80 F (27 C)
Dew Point: 77 F (25 C)
Relative Humidity: 88%
Pressure (altimeter): 29.83 in. Hg (1010 hPa)
ob: WMKK 151600Z 00000KT 9000 FEW030 27/25 Q1010 NOSIG
cycle: 16

Station Type Date Time Source
WMKK TAF 2020/08/15 12:09 UTC NOAA

TAF WMKK 151100Z 1512/1618 16005KT 9999 FEW018
TEMPO 1607/1612 3000 TSRA FEW010 FEW016CB SCT018

Example: see airport list